sensor_id;sensor_type;location;lat;lon;timestamp;temperature;humidity
35258;DHT22;21385;50.878;8.050;2023-02-28T00:00:23;0.00;99.90
35258;DHT22;21385;50.878;8.050;2023-02-28T00:02:48;0.00;99.90
35258;DHT22;21385;50.878;8.050;2023-02-28T00:05:17;0.00;99.90
35258;DHT22;21385;50.878;8.050;2023-02-28T00:07:43;0.00;99.90
35258;DHT22;21385;50.878;8.050;2023-02-28T00:10:12;0.00;99.90
35258;DHT22;21385;50.878;8.050;2023-02-28T00:12:38;0.00;99.90
35258;DHT22;21385;50.878;8.050;2023-02-28T00:15:09;0.00;99.90
35258;DHT22;21385;50.878;8.050;2023-02-28T00:17:35;-0.10;99.90
35258;DHT22;21385;50.878;8.050;2023-02-28T00:20:01;-0.10;99.90
35258;DHT22;21385;50.878;8.050;2023-02-28T00:22:38;-0.10;99.90
35258;DHT22;21385;50.878;8.050;2023-02-28T00:25:04;-0.10;99.90
35258;DHT22;21385;50.878;8.050;2023-02-28T00:27:32;-0.10;99.90
35258;DHT22;21385;50.878;8.050;2023-02-28T00:29:57;-0.20;99.90
35258;DHT22;21385;50.878;8.050;2023-02-28T00:32:23;-0.20;99.90
35258;DHT22;21385;50.878;8.050;2023-02-28T00:34:49;-0.20;99.90
35258;DHT22;21385;50.878;8.050;2023-02-28T00:37:14;-0.30;99.90
35258;DHT22;21385;50.878;8.050;2023-02-28T00:39:40;-0.30;99.90
35258;DHT22;21385;50.878;8.050;2023-02-28T00:42:07;-0.40;99.90
35258;DHT22;21385;50.878;8.050;2023-02-28T00:44:33;-0.40;99.90
35258;DHT22;21385;50.878;8.050;2023-02-28T00:46:59;-0.40;99.90
35258;DHT22;21385;50.878;8.050;2023-02-28T00:49:26;-0.30;99.90
35258;DHT22;21385;50.878;8.050;2023-02-28T00:51:52;-0.30;99.90
35258;DHT22;21385;50.878;8.050;2023-02-28T00:54:18;-0.20;99.90
35258;DHT22;21385;50.878;8.050;2023-02-28T00:56:44;-0.30;99.90
35258;DHT22;21385;50.878;8.050;2023-02-28T00:59:11;-0.30;99.90
35258;DHT22;21385;50.878;8.050;2023-02-28T01:01:37;-0.40;99.90
35258;DHT22;21385;50.878;8.050;2023-02-28T01:04:03;-0.40;99.90
35258;DHT22;21385;50.878;8.050;2023-02-28T01:06:30;-0.50;99.90
35258;DHT22;21385;50.878;8.050;2023-02-28T01:08:55;-0.50;99.90
35258;DHT22;21385;50.878;8.050;2023-02-28T01:11:21;-0.60;99.90
35258;DHT22;21385;50.878;8.050;2023-02-28T01:13:47;-0.60;99.90
35258;DHT22;21385;50.878;8.050;2023-02-28T01:16:13;-0.60;99.90
35258;DHT22;21385;50.878;8.050;2023-02-28T01:18:39;-0.70;99.90
35258;DHT22;21385;50.878;8.050;2023-02-28T01:21:10;-0.70;99.90
35258;DHT22;21385;50.878;8.050;2023-02-28T01:23:36;-0.80;99.90
35258;DHT22;21385;50.878;8.050;2023-02-28T01:26:10;-0.80;99.90
35258;DHT22;21385;50.878;8.050;2023-02-28T01:28:36;-0.90;99.90
35258;DHT22;21385;50.878;8.050;2023-02-28T01:31:02;-0.90;99.90
35258;DHT22;21385;50.878;8.050;2023-02-28T01:33:28;-0.90;99.90
35258;DHT22;21385;50.878;8.050;2023-02-28T01:36:00;-0.90;99.90
35258;DHT22;21385;50.878;8.050;2023-02-28T01:38:27;-0.80;99.90
35258;DHT22;21385;50.878;8.050;2023-02-28T01:40:53;-0.80;99.90
35258;DHT22;21385;50.878;8.050;2023-02-28T01:43:28;-0.80;99.90
35258;DHT22;21385;50.878;8.050;2023-02-28T01:45:55;-0.70;99.90
35258;DHT22;21385;50.878;8.050;2023-02-28T01:48:27;-0.70;99.90
35258;DHT22;21385;50.878;8.050;2023-02-28T01:50:57;-0.70;99.90
35258;DHT22;21385;50.878;8.050;2023-02-28T01:53:32;-0.60;99.90
35258;DHT22;21385;50.878;8.050;2023-02-28T01:56:00;-0.60;99.90
35258;DHT22;21385;50.878;8.050;2023-02-28T01:58:26;-0.50;99.90
35258;DHT22;21385;50.878;8.050;2023-02-28T02:00:51;-0.40;99.90
35258;DHT22;21385;50.878;8.050;2023-02-28T02:03:18;-0.40;99.90
35258;DHT22;21385;50.878;8.050;2023-02-28T02:05:45;-0.40;99.90
35258;DHT22;21385;50.878;8.050;2023-02-28T02:08:21;-0.30;99.90
35258;DHT22;21385;50.878;8.050;2023-02-28T02:10:50;-0.30;99.90
35258;DHT22;21385;50.878;8.050;2023-02-28T02:16:23;-0.20;99.90
35258;DHT22;21385;50.878;8.050;2023-02-28T02:24:47;-0.20;99.90
35258;DHT22;21385;50.878;8.050;2023-02-28T02:38:55;-0.40;99.90
35258;DHT22;21385;50.878;8.050;2023-02-28T02:41:46;-0.50;99.90
35258;DHT22;21385;50.878;8.050;2023-02-28T02:44:37;-0.50;99.90
35258;DHT22;21385;50.878;8.050;2023-02-28T02:47:08;-0.60;99.90
35258;DHT22;21385;50.878;8.050;2023-02-28T02:49:36;-0.60;99.90
35258;DHT22;21385;50.878;8.050;2023-02-28T02:52:06;-0.60;99.90
35258;DHT22;21385;50.878;8.050;2023-02-28T02:54:43;-0.70;99.90
35258;DHT22;21385;50.878;8.050;2023-02-28T02:57:22;-0.70;99.90
35258;DHT22;21385;50.878;8.050;2023-02-28T02:59:50;-0.70;99.90
35258;DHT22;21385;50.878;8.050;2023-02-28T03:02:17;-0.80;99.90
35258;DHT22;21385;50.878;8.050;2023-02-28T03:04:46;-0.80;99.90
35258;DHT22;21385;50.878;8.050;2023-02-28T03:07:14;-0.90;99.90
35258;DHT22;21385;50.878;8.050;2023-02-28T03:09:39;-0.90;99.90
35258;DHT22;21385;50.878;8.050;2023-02-28T03:12:10;-0.90;99.90
35258;DHT22;21385;50.878;8.050;2023-02-28T03:15:07;-0.90;99.90
35258;DHT22;21385;50.878;8.050;2023-02-28T03:18:31;-0.90;99.90
35258;DHT22;21385;50.878;8.050;2023-02-28T03:21:12;-0.90;99.90
35258;DHT22;21385;50.878;8.050;2023-02-28T03:26:54;-0.90;99.90
35258;DHT22;21385;50.878;8.050;2023-02-28T03:29:30;-0.90;99.90
35258;DHT22;21385;50.878;8.050;2023-02-28T03:32:08;-0.90;99.90
35258;DHT22;21385;50.878;8.050;2023-02-28T03:34:43;-0.80;99.90
35258;DHT22;21385;50.878;8.050;2023-02-28T03:37:16;-0.90;99.90
35258;DHT22;21385;50.878;8.050;2023-02-28T03:39:47;-0.90;99.90
35258;DHT22;21385;50.878;8.050;2023-02-28T03:42:18;-0.80;99.90
35258;DHT22;21385;50.878;8.050;2023-02-28T03:45:05;-0.90;99.90
35258;DHT22;21385;50.878;8.050;2023-02-28T03:55:59;-1.00;99.90
35258;DHT22;21385;50.878;8.050;2023-02-28T03:58:37;-1.00;99.90
35258;DHT22;21385;50.878;8.050;2023-02-28T04:01:21;-1.10;99.90
35258;DHT22;21385;50.878;8.050;2023-02-28T04:03:48;-1.00;99.90
35258;DHT22;21385;50.878;8.050;2023-02-28T04:06:17;-1.10;99.90
35258;DHT22;21385;50.878;8.050;2023-02-28T04:08:43;-1.00;99.90
35258;DHT22;21385;50.878;8.050;2023-02-28T04:11:33;-1.00;99.90
35258;DHT22;21385;50.878;8.050;2023-02-28T04:14:01;-1.00;99.90
35258;DHT22;21385;50.878;8.050;2023-02-28T04:16:28;-1.00;99.90
35258;DHT22;21385;50.878;8.050;2023-02-28T04:18:53;-1.00;99.90
35258;DHT22;21385;50.878;8.050;2023-02-28T04:21:19;-1.00;99.90
35258;DHT22;21385;50.878;8.050;2023-02-28T04:23:47;-1.00;99.90
35258;DHT22;21385;50.878;8.050;2023-02-28T04:26:13;-1.00;99.90
35258;DHT22;21385;50.878;8.050;2023-02-28T04:28:38;-1.10;99.90
35258;DHT22;21385;50.878;8.050;2023-02-28T04:31:04;-1.10;99.90
35258;DHT22;21385;50.878;8.050;2023-02-28T04:33:31;-1.10;99.90
35258;DHT22;21385;50.878;8.050;2023-02-28T04:36:06;-1.10;99.90
35258;DHT22;21385;50.878;8.050;2023-02-28T04:38:37;-1.20;99.90
35258;DHT22;21385;50.878;8.050;2023-02-28T04:41:03;-1.20;99.90
35258;DHT22;21385;50.878;8.050;2023-02-28T04:43:30;-1.20;99.90
35258;DHT22;21385;50.878;8.050;2023-02-28T04:45:57;-1.20;99.90
35258;DHT22;21385;50.878;8.050;2023-02-28T04:48:25;-1.20;99.90
35258;DHT22;21385;50.878;8.050;2023-02-28T04:50:51;-1.30;99.90
35258;DHT22;21385;50.878;8.050;2023-02-28T04:53:18;-1.40;99.90
35258;DHT22;21385;50.878;8.050;2023-02-28T04:55:44;-1.40;99.90
35258;DHT22;21385;50.878;8.050;2023-02-28T04:58:10;-1.50;99.90
35258;DHT22;21385;50.878;8.050;2023-02-28T05:00:35;-1.50;99.90
35258;DHT22;21385;50.878;8.050;2023-02-28T05:03:01;-1.60;99.90
35258;DHT22;21385;50.878;8.050;2023-02-28T05:05:27;-1.60;99.90
35258;DHT22;21385;50.878;8.050;2023-02-28T05:07:53;-1.60;99.90
35258;DHT22;21385;50.878;8.050;2023-02-28T05:10:21;-1.70;99.90
35258;DHT22;21385;50.878;8.050;2023-02-28T05:12:47;-1.70;99.90
35258;DHT22;21385;50.878;8.050;2023-02-28T05:15:14;-1.70;99.90
35258;DHT22;21385;50.878;8.050;2023-02-28T05:17:40;-1.60;99.90
35258;DHT22;21385;50.878;8.050;2023-02-28T05:20:07;-1.60;99.90
35258;DHT22;21385;50.878;8.050;2023-02-28T05:22:34;-1.60;99.90
35258;DHT22;21385;50.878;8.050;2023-02-28T05:24:59;-1.50;99.90
35258;DHT22;21385;50.878;8.050;2023-02-28T05:27:25;-1.50;99.90
35258;DHT22;21385;50.878;8.050;2023-02-28T05:29:50;-1.50;99.90
35258;DHT22;21385;50.878;8.050;2023-02-28T05:32:16;-1.40;99.90
35258;DHT22;21385;50.878;8.050;2023-02-28T05:34:42;-1.40;99.90
35258;DHT22;21385;50.878;8.050;2023-02-28T05:37:14;-1.50;99.90
35258;DHT22;21385;50.878;8.050;2023-02-28T05:39:41;-1.40;99.90
35258;DHT22;21385;50.878;8.050;2023-02-28T05:42:07;-1.40;99.90
35258;DHT22;21385;50.878;8.050;2023-02-28T05:44:33;-1.40;99.90
35258;DHT22;21385;50.878;8.050;2023-02-28T05:46:59;-1.50;99.90
35258;DHT22;21385;50.878;8.050;2023-02-28T05:49:24;-1.60;99.90
35258;DHT22;21385;50.878;8.050;2023-02-28T05:51:50;-1.60;99.90
35258;DHT22;21385;50.878;8.050;2023-02-28T05:54:16;-1.70;99.90
35258;DHT22;21385;50.878;8.050;2023-02-28T05:56:41;-1.80;99.90
35258;DHT22;21385;50.878;8.050;2023-02-28T05:59:09;-1.80;99.90
35258;DHT22;21385;50.878;8.050;2023-02-28T06:04:05;-1.80;99.90
35258;DHT22;21385;50.878;8.050;2023-02-28T06:06:30;-1.80;99.90
35258;DHT22;21385;50.878;8.050;2023-02-28T06:08:57;-1.80;99.90
35258;DHT22;21385;50.878;8.050;2023-02-28T06:11:22;-1.90;99.90
35258;DHT22;21385;50.878;8.050;2023-02-28T06:13:57;-1.90;99.90
35258;DHT22;21385;50.878;8.050;2023-02-28T06:16:23;-1.90;99.90
35258;DHT22;21385;50.878;8.050;2023-02-28T06:18:49;-1.90;99.90
35258;DHT22;21385;50.878;8.050;2023-02-28T06:21:15;-1.90;99.90
35258;DHT22;21385;50.878;8.050;2023-02-28T06:23:40;-1.90;99.90
35258;DHT22;21385;50.878;8.050;2023-02-28T06:26:06;-1.90;99.90
35258;DHT22;21385;50.878;8.050;2023-02-28T06:28:31;-1.80;99.90
35258;DHT22;21385;50.878;8.050;2023-02-28T06:30:57;-1.80;99.90
35258;DHT22;21385;50.878;8.050;2023-02-28T06:33:26;-1.80;99.90
35258;DHT22;21385;50.878;8.050;2023-02-28T06:35:52;-1.80;99.90
35258;DHT22;21385;50.878;8.050;2023-02-28T06:38:18;-1.80;99.90
35258;DHT22;21385;50.878;8.050;2023-02-28T06:40:44;-1.80;99.90
35258;DHT22;21385;50.878;8.050;2023-02-28T06:43:10;-1.70;99.90
35258;DHT22;21385;50.878;8.050;2023-02-28T06:45:42;-1.70;99.90
35258;DHT22;21385;50.878;8.050;2023-02-28T06:48:07;-1.60;99.90
35258;DHT22;21385;50.878;8.050;2023-02-28T06:50:33;-1.60;99.90
35258;DHT22;21385;50.878;8.050;2023-02-28T06:52:58;-1.60;99.90
35258;DHT22;21385;50.878;8.050;2023-02-28T06:55:24;-1.60;99.90
35258;DHT22;21385;50.878;8.050;2023-02-28T06:57:49;-1.50;99.90
35258;DHT22;21385;50.878;8.050;2023-02-28T07:00:16;-1.40;99.90
35258;DHT22;21385;50.878;8.050;2023-02-28T07:02:41;-1.40;99.90
35258;DHT22;21385;50.878;8.050;2023-02-28T07:05:07;-1.40;99.90
35258;DHT22;21385;50.878;8.050;2023-02-28T07:07:33;-1.30;99.90
35258;DHT22;21385;50.878;8.050;2023-02-28T07:10:01;-1.30;99.90
35258;DHT22;21385;50.878;8.050;2023-02-28T07:12:27;-1.30;99.90
35258;DHT22;21385;50.878;8.050;2023-02-28T07:14:52;-1.20;99.90
35258;DHT22;21385;50.878;8.050;2023-02-28T07:17:19;-1.10;99.90
35258;DHT22;21385;50.878;8.050;2023-02-28T07:19:45;-1.00;99.90
35258;DHT22;21385;50.878;8.050;2023-02-28T07:22:10;-0.90;99.90
35258;DHT22;21385;50.878;8.050;2023-02-28T07:24:36;-0.80;99.90
35258;DHT22;21385;50.878;8.050;2023-02-28T07:27:02;-0.70;99.90
35258;DHT22;21385;50.878;8.050;2023-02-28T07:29:27;-0.60;99.90
35258;DHT22;21385;50.878;8.050;2023-02-28T07:31:53;-0.50;99.90
35258;DHT22;21385;50.878;8.050;2023-02-28T07:34:20;-0.40;99.90
35258;DHT22;21385;50.878;8.050;2023-02-28T07:36:45;-0.20;99.90
35258;DHT22;21385;50.878;8.050;2023-02-28T07:39:11;-0.10;99.90
35258;DHT22;21385;50.878;8.050;2023-02-28T07:41:36;0.00;99.90
35258;DHT22;21385;50.878;8.050;2023-02-28T07:44:09;0.10;99.90
35258;DHT22;21385;50.878;8.050;2023-02-28T07:46:35;0.20;99.90
35258;DHT22;21385;50.878;8.050;2023-02-28T07:49:01;0.30;99.90
35258;DHT22;21385;50.878;8.050;2023-02-28T07:51:29;0.40;99.90
35258;DHT22;21385;50.878;8.050;2023-02-28T07:53:55;0.50;99.90
35258;DHT22;21385;50.878;8.050;2023-02-28T07:56:21;0.50;99.90
35258;DHT22;21385;50.878;8.050;2023-02-28T07:58:46;0.60;99.90
35258;DHT22;21385;50.878;8.050;2023-02-28T08:01:12;0.70;99.90
35258;DHT22;21385;50.878;8.050;2023-02-28T08:03:39;0.80;99.90
35258;DHT22;21385;50.878;8.050;2023-02-28T08:06:06;0.80;99.80
35258;DHT22;21385;50.878;8.050;2023-02-28T08:08:32;0.80;99.70
35258;DHT22;21385;50.878;8.050;2023-02-28T08:11:00;0.90;99.90
35258;DHT22;21385;50.878;8.050;2023-02-28T08:13:27;1.00;99.80
35258;DHT22;21385;50.878;8.050;2023-02-28T08:15:54;1.10;99.70
35258;DHT22;21385;50.878;8.050;2023-02-28T08:18:21;1.20;98.80
35258;DHT22;21385;50.878;8.050;2023-02-28T08:20:46;1.30;98.50
35258;DHT22;21385;50.878;8.050;2023-02-28T08:23:12;1.30;98.20
35258;DHT22;21385;50.878;8.050;2023-02-28T08:25:38;1.40;98.00
35258;DHT22;21385;50.878;8.050;2023-02-28T08:28:03;1.50;97.00
35258;DHT22;21385;50.878;8.050;2023-02-28T08:30:29;1.50;97.10
35258;DHT22;21385;50.878;8.050;2023-02-28T08:32:54;1.60;97.10
35258;DHT22;21385;50.878;8.050;2023-02-28T08:35:21;1.70;97.10
35258;DHT22;21385;50.878;8.050;2023-02-28T08:37:49;1.80;96.50
35258;DHT22;21385;50.878;8.050;2023-02-28T08:40:16;2.00;96.60
35258;DHT22;21385;50.878;8.050;2023-02-28T08:42:46;2.10;96.10
35258;DHT22;21385;50.878;8.050;2023-02-28T08:45:13;2.20;94.60
35258;DHT22;21385;50.878;8.050;2023-02-28T08:47:39;2.30;94.50
35258;DHT22;21385;50.878;8.050;2023-02-28T08:50:06;2.30;94.40
35258;DHT22;21385;50.878;8.050;2023-02-28T08:52:32;2.40;94.50
35258;DHT22;21385;50.878;8.050;2023-02-28T08:54:58;2.60;95.00
35258;DHT22;21385;50.878;8.050;2023-02-28T08:57:23;2.70;94.60
35258;DHT22;21385;50.878;8.050;2023-02-28T08:59:51;2.80;93.70
35258;DHT22;21385;50.878;8.050;2023-02-28T09:02:17;2.90;93.50
35258;DHT22;21385;50.878;8.050;2023-02-28T09:04:43;3.00;92.70
35258;DHT22;21385;50.878;8.050;2023-02-28T09:07:11;3.00;92.60
35258;DHT22;21385;50.878;8.050;2023-02-28T09:09:37;3.10;92.30
35258;DHT22;21385;50.878;8.050;2023-02-28T09:12:03;3.30;92.00
35258;DHT22;21385;50.878;8.050;2023-02-28T09:14:28;3.40;92.30
35258;DHT22;21385;50.878;8.050;2023-02-28T10:51:58;7.70;99.90
35258;DHT22;21385;50.878;8.050;2023-02-28T10:54:27;7.60;71.00
35258;DHT22;21385;50.878;8.050;2023-02-28T10:59:41;8.00;70.20
35258;DHT22;21385;50.878;8.050;2023-02-28T11:04:54;8.50;67.00
35258;DHT22;21385;50.878;8.050;2023-02-28T11:07:23;8.60;63.60
35258;DHT22;21385;50.878;8.050;2023-02-28T11:09:50;8.60;61.80
35258;DHT22;21385;50.878;8.050;2023-02-28T11:14:49;8.50;60.60
35258;DHT22;21385;50.878;8.050;2023-02-28T11:17:21;8.40;62.10
35258;DHT22;21385;50.878;8.050;2023-02-28T11:19:52;8.50;61.10
35258;DHT22;21385;50.878;8.050;2023-02-28T11:22:22;8.70;59.70
35258;DHT22;21385;50.878;8.050;2023-02-28T11:24:51;8.80;58.90
35258;DHT22;21385;50.878;8.050;2023-02-28T11:28:39;8.90;58.50
35258;DHT22;21385;50.878;8.050;2023-02-28T11:30:39;8.70;57.70
35258;DHT22;21385;50.878;8.050;2023-02-28T11:33:31;8.40;57.20
35258;DHT22;21385;50.878;8.050;2023-02-28T11:36:02;7.80;58.50
35258;DHT22;21385;50.878;8.050;2023-02-28T11:38:28;7.90;91.60
35258;DHT22;21385;50.878;8.050;2023-02-28T11:48:45;8.70;60.20
35258;DHT22;21385;50.878;8.050;2023-02-28T11:51:24;9.20;59.20
35258;DHT22;21385;50.878;8.050;2023-02-28T11:56:50;9.90;57.40
35258;DHT22;21385;50.878;8.050;2023-02-28T12:18:37;11.40;52.10
35258;DHT22;21385;50.878;8.050;2023-02-28T12:21:21;11.60;51.80
35258;DHT22;21385;50.878;8.050;2023-02-28T12:24:12;11.70;51.60
35258;DHT22;21385;50.878;8.050;2023-02-28T12:26:45;12.00;49.50
35258;DHT22;21385;50.878;8.050;2023-02-28T12:29:50;12.00;49.50
35258;DHT22;21385;50.878;8.050;2023-02-28T12:32:30;12.10;49.70
35258;DHT22;21385;50.878;8.050;2023-02-28T12:37:41;12.00;47.40
35258;DHT22;21385;50.878;8.050;2023-02-28T12:40:19;11.90;48.00
35258;DHT22;21385;50.878;8.050;2023-02-28T12:43:06;11.90;47.90
35258;DHT22;21385;50.878;8.050;2023-02-28T12:48:08;11.60;49.80
35258;DHT22;21385;50.878;8.050;2023-02-28T12:50:36;11.80;48.30
35258;DHT22;21385;50.878;8.050;2023-02-28T12:53:23;12.10;48.00
35258;DHT22;21385;50.878;8.050;2023-02-28T12:58:25;12.20;49.10
35258;DHT22;21385;50.878;8.050;2023-02-28T13:09:13;12.30;47.90
35258;DHT22;21385;50.878;8.050;2023-02-28T13:11:47;12.40;46.60
35258;DHT22;21385;50.878;8.050;2023-02-28T13:19:46;12.50;45.50
35258;DHT22;21385;50.878;8.050;2023-02-28T13:22:25;12.50;45.60
35258;DHT22;21385;50.878;8.050;2023-02-28T13:27:53;12.90;45.50
35258;DHT22;21385;50.878;8.050;2023-02-28T13:38:39;13.00;44.20
35258;DHT22;21385;50.878;8.050;2023-02-28T13:47:23;13.70;43.50
35258;DHT22;21385;50.878;8.050;2023-02-28T13:51:52;14.00;42.20
35258;DHT22;21385;50.878;8.050;2023-02-28T14:02:30;15.00;42.50
35258;DHT22;21385;50.878;8.050;2023-02-28T14:05:06;15.10;42.00
35258;DHT22;21385;50.878;8.050;2023-02-28T14:07:50;15.20;41.00
35258;DHT22;21385;50.878;8.050;2023-02-28T14:10:26;15.10;41.10
35258;DHT22;21385;50.878;8.050;2023-02-28T14:30:15;16.30;38.10
35258;DHT22;21385;50.878;8.050;2023-02-28T14:36:00;16.70;36.80
35258;DHT22;21385;50.878;8.050;2023-02-28T14:38:32;16.50;38.80
35258;DHT22;21385;50.878;8.050;2023-02-28T14:41:02;16.60;38.10
35258;DHT22;21385;50.878;8.050;2023-02-28T14:43:28;16.60;38.50
35258;DHT22;21385;50.878;8.050;2023-02-28T14:46:02;16.70;37.10
35258;DHT22;21385;50.878;8.050;2023-02-28T14:48:29;16.70;37.50
35258;DHT22;21385;50.878;8.050;2023-02-28T14:53:26;16.60;37.30
35258;DHT22;21385;50.878;8.050;2023-02-28T14:55:52;16.60;37.50
35258;DHT22;21385;50.878;8.050;2023-02-28T14:58:27;16.50;37.30
35258;DHT22;21385;50.878;8.050;2023-02-28T15:00:55;16.50;37.50
35258;DHT22;21385;50.878;8.050;2023-02-28T15:03:34;16.60;37.50
35258;DHT22;21385;50.878;8.050;2023-02-28T15:06:02;16.60;36.80
35258;DHT22;21385;50.878;8.050;2023-02-28T15:08:29;16.40;36.60
35258;DHT22;21385;50.878;8.050;2023-02-28T15:11:00;16.30;36.90
35258;DHT22;21385;50.878;8.050;2023-02-28T15:16:02;16.30;36.50
35258;DHT22;21385;50.878;8.050;2023-02-28T15:18:48;16.40;36.60
35258;DHT22;21385;50.878;8.050;2023-02-28T15:23:54;16.20;36.30
35258;DHT22;21385;50.878;8.050;2023-02-28T15:26:25;15.90;36.80
35258;DHT22;21385;50.878;8.050;2023-02-28T15:28:59;15.80;36.70
35258;DHT22;21385;50.878;8.050;2023-02-28T15:31:29;15.60;37.20
35258;DHT22;21385;50.878;8.050;2023-02-28T15:33:57;15.60;37.90
35258;DHT22;21385;50.878;8.050;2023-02-28T15:36:29;15.50;37.00
35258;DHT22;21385;50.878;8.050;2023-02-28T15:38:57;15.20;37.10
35258;DHT22;21385;50.878;8.050;2023-02-28T15:44:16;14.70;37.80
35258;DHT22;21385;50.878;8.050;2023-02-28T15:47:44;14.40;38.90
35258;DHT22;21385;50.878;8.050;2023-02-28T15:52:39;13.80;39.20
35258;DHT22;21385;50.878;8.050;2023-02-28T15:55:26;13.60;39.80
35258;DHT22;21385;50.878;8.050;2023-02-28T15:57:54;13.30;40.40
35258;DHT22;21385;50.878;8.050;2023-02-28T16:00:24;13.00;40.90
35258;DHT22;21385;50.878;8.050;2023-02-28T16:02:50;12.70;41.00
35258;DHT22;21385;50.878;8.050;2023-02-28T16:05:28;12.60;42.00
35258;DHT22;21385;50.878;8.050;2023-02-28T16:07:59;12.50;41.80
35258;DHT22;21385;50.878;8.050;2023-02-28T16:10:27;12.30;42.20
35258;DHT22;21385;50.878;8.050;2023-02-28T16:12:57;12.30;42.50
35258;DHT22;21385;50.878;8.050;2023-02-28T16:15:29;12.10;42.30
35258;DHT22;21385;50.878;8.050;2023-02-28T16:17:59;11.90;42.50
35258;DHT22;21385;50.878;8.050;2023-02-28T16:20:30;11.80;42.90
35258;DHT22;21385;50.878;8.050;2023-02-28T16:22:56;11.50;43.20
35258;DHT22;21385;50.878;8.050;2023-02-28T16:25:40;11.40;43.80
35258;DHT22;21385;50.878;8.050;2023-02-28T16:28:29;11.30;44.20
35258;DHT22;21385;50.878;8.050;2023-02-28T16:30:56;11.20;43.70
35258;DHT22;21385;50.878;8.050;2023-02-28T16:33:22;11.10;44.00
35258;DHT22;21385;50.878;8.050;2023-02-28T16:35:49;10.90;44.30
35258;DHT22;21385;50.878;8.050;2023-02-28T16:38:15;10.70;44.60
35258;DHT22;21385;50.878;8.050;2023-02-28T16:40:40;10.60;45.10
35258;DHT22;21385;50.878;8.050;2023-02-28T16:43:15;10.40;45.40
35258;DHT22;21385;50.878;8.050;2023-02-28T16:45:41;10.30;45.70
35258;DHT22;21385;50.878;8.050;2023-02-28T16:48:12;10.20;45.70
35258;DHT22;21385;50.878;8.050;2023-02-28T16:50:38;10.20;45.90
35258;DHT22;21385;50.878;8.050;2023-02-28T16:53:04;10.20;45.80
35258;DHT22;21385;50.878;8.050;2023-02-28T16:55:30;10.20;45.80
35258;DHT22;21385;50.878;8.050;2023-02-28T16:57:58;10.10;46.50
35258;DHT22;21385;50.878;8.050;2023-02-28T17:00:25;9.90;46.30
35258;DHT22;21385;50.878;8.050;2023-02-28T17:02:51;9.70;46.60
35258;DHT22;21385;50.878;8.050;2023-02-28T17:05:17;9.30;47.10
35258;DHT22;21385;50.878;8.050;2023-02-28T17:07:44;9.00;48.00
35258;DHT22;21385;50.878;8.050;2023-02-28T17:10:21;8.80;48.60
35258;DHT22;21385;50.878;8.050;2023-02-28T17:12:47;8.50;49.50
35258;DHT22;21385;50.878;8.050;2023-02-28T17:15:14;8.30;50.10
35258;DHT22;21385;50.878;8.050;2023-02-28T17:20:15;7.80;50.70
35258;DHT22;21385;50.878;8.050;2023-02-28T17:25:08;7.40;91.70
35258;DHT22;21385;50.878;8.050;2023-02-28T17:27:35;7.10;52.40
35258;DHT22;21385;50.878;8.050;2023-02-28T17:30:02;6.80;52.90
35258;DHT22;21385;50.878;8.050;2023-02-28T17:32:28;6.60;53.50
35258;DHT22;21385;50.878;8.050;2023-02-28T17:34:54;6.40;53.90
35258;DHT22;21385;50.878;8.050;2023-02-28T17:37:19;6.20;54.60
35258;DHT22;21385;50.878;8.050;2023-02-28T17:42:11;5.90;55.10
35258;DHT22;21385;50.878;8.050;2023-02-28T17:44:37;5.70;56.00
35258;DHT22;21385;50.878;8.050;2023-02-28T17:47:03;5.50;56.40
35258;DHT22;21385;50.878;8.050;2023-02-28T17:49:29;5.40;57.00
35258;DHT22;21385;50.878;8.050;2023-02-28T17:51:54;5.30;57.50
35258;DHT22;21385;50.878;8.050;2023-02-28T17:54:20;5.20;58.40
35258;DHT22;21385;50.878;8.050;2023-02-28T17:56:46;5.10;58.60
35258;DHT22;21385;50.878;8.050;2023-02-28T17:59:12;5.10;58.80
35258;DHT22;21385;50.878;8.050;2023-02-28T18:04:04;4.90;86.40
35258;DHT22;21385;50.878;8.050;2023-02-28T18:06:39;4.80;60.00
35258;DHT22;21385;50.878;8.050;2023-02-28T18:09:22;4.80;60.60
35258;DHT22;21385;50.878;8.050;2023-02-28T18:11:48;4.70;61.50
35258;DHT22;21385;50.878;8.050;2023-02-28T18:14:15;4.60;62.00
35258;DHT22;21385;50.878;8.050;2023-02-28T18:16:41;4.60;62.70
35258;DHT22;21385;50.878;8.050;2023-02-28T18:19:07;4.60;63.00
35258;DHT22;21385;50.878;8.050;2023-02-28T18:21:49;4.60;63.50
35258;DHT22;21385;50.878;8.050;2023-02-28T18:24:16;4.50;63.90
35258;DHT22;21385;50.878;8.050;2023-02-28T18:26:42;4.50;64.40
35258;DHT22;21385;50.878;8.050;2023-02-28T18:29:09;4.40;65.90
35258;DHT22;21385;50.878;8.050;2023-02-28T18:31:38;4.40;65.80
35258;DHT22;21385;50.878;8.050;2023-02-28T18:34:03;4.30;66.50
35258;DHT22;21385;50.878;8.050;2023-02-28T18:36:29;4.20;67.00
35258;DHT22;21385;50.878;8.050;2023-02-28T18:38:55;4.10;67.60
35258;DHT22;21385;50.878;8.050;2023-02-28T18:41:21;4.00;68.40
35258;DHT22;21385;50.878;8.050;2023-02-28T18:43:47;3.90;69.10
35258;DHT22;21385;50.878;8.050;2023-02-28T18:46:16;3.80;69.70
35258;DHT22;21385;50.878;8.050;2023-02-28T18:48:42;3.80;70.80
35258;DHT22;21385;50.878;8.050;2023-02-28T18:51:16;3.70;71.50
35258;DHT22;21385;50.878;8.050;2023-02-28T18:53:43;3.70;72.00
35258;DHT22;21385;50.878;8.050;2023-02-28T18:56:11;3.60;73.00
35258;DHT22;21385;50.878;8.050;2023-02-28T18:58:38;3.60;73.60
35258;DHT22;21385;50.878;8.050;2023-02-28T19:01:16;3.50;74.20
35258;DHT22;21385;50.878;8.050;2023-02-28T19:03:42;3.50;75.00
35258;DHT22;21385;50.878;8.050;2023-02-28T19:06:08;3.50;75.80
35258;DHT22;21385;50.878;8.050;2023-02-28T19:08:34;3.40;76.50
35258;DHT22;21385;50.878;8.050;2023-02-28T19:11:08;3.40;77.70
35258;DHT22;21385;50.878;8.050;2023-02-28T19:13:34;3.40;79.30
35258;DHT22;21385;50.878;8.050;2023-02-28T19:18:27;3.30;81.80
35258;DHT22;21385;50.878;8.050;2023-02-28T19:20:52;3.30;84.40
35258;DHT22;21385;50.878;8.050;2023-02-28T19:23:18;3.20;86.20
35258;DHT22;21385;50.878;8.050;2023-02-28T19:25:43;3.10;87.60
35258;DHT22;21385;50.878;8.050;2023-02-28T19:28:09;3.00;89.10
35258;DHT22;21385;50.878;8.050;2023-02-28T19:30:35;2.90;90.20
35258;DHT22;21385;50.878;8.050;2023-02-28T19:33:00;2.80;90.80
35258;DHT22;21385;50.878;8.050;2023-02-28T19:35:26;2.90;91.50
35258;DHT22;21385;50.878;8.050;2023-02-28T19:37:51;2.80;92.30
35258;DHT22;21385;50.878;8.050;2023-02-28T19:40:17;2.80;93.00
35258;DHT22;21385;50.878;8.050;2023-02-28T19:42:43;2.80;93.50
35258;DHT22;21385;50.878;8.050;2023-02-28T19:45:09;2.70;94.00
35258;DHT22;21385;50.878;8.050;2023-02-28T19:47:39;2.70;94.60
35258;DHT22;21385;50.878;8.050;2023-02-28T19:50:06;2.60;94.90
35258;DHT22;21385;50.878;8.050;2023-02-28T19:52:32;2.60;95.40
35258;DHT22;21385;50.878;8.050;2023-02-28T19:54:58;2.50;96.00
35258;DHT22;21385;50.878;8.050;2023-02-28T19:57:24;2.50;96.70
35258;DHT22;21385;50.878;8.050;2023-02-28T19:59:50;2.50;97.10
35258;DHT22;21385;50.878;8.050;2023-02-28T20:02:18;2.40;97.50
35258;DHT22;21385;50.878;8.050;2023-02-28T20:04:48;2.40;97.90
35258;DHT22;21385;50.878;8.050;2023-02-28T20:07:15;2.30;98.20
35258;DHT22;21385;50.878;8.050;2023-02-28T20:09:41;2.30;98.60
35258;DHT22;21385;50.878;8.050;2023-02-28T20:12:07;2.20;99.10